createdAt,value
2022-08-11T00:02:02.312Z,22.50
2022-08-11T00:04:37.347Z,22.53
2022-08-11T00:07:07.171Z,22.53
2022-08-11T00:09:38.921Z,22.47
2022-08-11T00:12:16.771Z,22.43
2022-08-11T00:14:46.494Z,22.39
2022-08-11T00:17:17.368Z,22.33
2022-08-11T00:20:15.023Z,22.33
2022-08-11T00:22:40.195Z,22.36
2022-08-11T00:25:20.465Z,22.29
2022-08-11T00:27:49.413Z,22.23
2022-08-11T00:30:17.728Z,22.19
2022-08-11T00:32:56.248Z,22.28
2022-08-11T00:35:52.558Z,22.33
2022-08-11T00:38:23.497Z,22.36
2022-08-11T00:41:01.273Z,22.41
2022-08-11T00:43:43.986Z,22.37
2022-08-11T00:46:23.279Z,22.37
2022-08-11T00:49:08.788Z,22.40
2022-08-11T00:52:17.468Z,22.47
2022-08-11T00:55:03.213Z,22.44
2022-08-11T00:57:52.684Z,22.39
2022-08-11T01:00:23.617Z,22.33
2022-08-11T01:03:23.804Z,22.29
2022-08-11T01:06:12.930Z,22.29
2022-08-11T01:09:07.276Z,22.24
2022-08-11T01:12:25.788Z,22.14
2022-08-11T01:15:24.665Z,22.02
2022-08-11T01:18:13.561Z,21.96
2022-08-11T01:20:59.555Z,22.01
2022-08-11T01:23:48.555Z,21.99
2022-08-11T01:26:51.307Z,21.91
2022-08-11T01:29:56.471Z,21.89
2022-08-11T01:33:20.105Z,21.69
2022-08-11T01:36:53.475Z,21.57
2022-08-11T01:39:50.965Z,21.55
2022-08-11T01:43:28.671Z,21.51
2022-08-11T01:46:23.052Z,21.51
2022-08-11T01:49:58.513Z,21.47
2022-08-11T01:52:19.813Z,21.51
2022-08-11T01:55:36.608Z,21.54
2022-08-11T01:58:21.100Z,21.59
2022-08-11T02:01:37.332Z,21.68
2022-08-11T02:04:15.191Z,21.74
2022-08-11T02:06:56.327Z,21.75
2022-08-11T02:09:51.984Z,21.74
2022-08-11T02:12:51.203Z,21.68
2022-08-11T02:15:44.006Z,21.62
2022-08-11T02:18:54.236Z,21.51
2022-08-11T02:22:05.966Z,21.43
2022-08-11T02:24:50.350Z,21.44
2022-08-11T02:27:27.502Z,21.48
2022-08-11T02:30:12.030Z,21.50
2022-08-11T02:33:23.534Z,21.43
2022-08-11T02:36:28.878Z,21.40
2022-08-11T02:39:16.591Z,21.28
2022-08-11T02:42:32.417Z,21.23
2022-08-11T02:45:32.594Z,21.26
2022-08-11T02:48:37.136Z,21.23
2022-08-11T02:51:21.767Z,21.16
2022-08-11T02:54:23.095Z,21.10
2022-08-11T02:57:22.874Z,21.10
2022-08-11T02:59:56.806Z,21.08
2022-08-11T03:02:42.620Z,21.00
2022-08-11T03:05:32.958Z,21.03
2022-08-11T03:08:18.852Z,20.95
2022-08-11T03:11:25.837Z,20.83
2022-08-11T03:14:44.236Z,20.68
2022-08-11T03:17:28.495Z,20.58
2022-08-11T03:20:15.760Z,20.58
2022-08-11T03:22:58.335Z,20.59
2022-08-11T03:25:44.561Z,20.49
2022-08-11T03:28:34.102Z,20.35
2022-08-11T03:31:12.831Z,20.31
2022-08-11T03:34:07.531Z,20.20
2022-08-11T03:37:15.660Z,20.21
2022-08-11T03:40:06.674Z,20.24
2022-08-11T03:42:52.301Z,20.21
2022-08-11T03:45:26.334Z,20.17
2022-08-11T03:48:14.497Z,20.10
2022-08-11T03:51:14.466Z,20.08
2022-08-11T03:53:52.053Z,20.03
2022-08-11T03:56:38.661Z,19.93
2022-08-11T03:59:39.667Z,19.87
2022-08-11T04:02:19.404Z,19.90
2022-08-11T04:04:52.885Z,19.97
2022-08-11T04:07:42.790Z,19.98
2022-08-11T04:10:37.177Z,19.97
2022-08-11T04:13:42.391Z,20.04
2022-08-11T04:16:44.750Z,20.08
2022-08-11T04:20:02.103Z,20.16
2022-08-11T04:22:54.445Z,20.08
2022-08-11T04:25:58.147Z,20.08
2022-08-11T04:29:01.577Z,20.11
2022-08-11T04:31:44.255Z,20.10
2022-08-11T04:34:50.737Z,20.08
2022-08-11T04:37:38.243Z,20.16
2022-08-11T04:40:21.059Z,20.28
2022-08-11T04:43:25.778Z,20.27
2022-08-11T04:46:28.744Z,20.29
2022-08-11T04:49:39.037Z,20.35
2022-08-11T04:53:00.154Z,20.48
2022-08-11T04:56:35.665Z,20.41
2022-08-11T04:59:59.065Z,20.39
2022-08-11T05:02:55.354Z,20.32
2022-08-11T05:06:25.357Z,20.39
2022-08-11T05:09:02.113Z,20.37
2022-08-11T05:11:48.397Z,20.28
2022-08-11T05:15:07.634Z,20.31
2022-08-11T05:18:19.591Z,20.35
2022-08-11T05:21:22.162Z,20.45
2022-08-11T05:24:21.997Z,20.47
2022-08-11T05:27:13.959Z,20.62
2022-08-11T05:30:05.465Z,20.73
2022-08-11T05:33:03.447Z,20.85
2022-08-11T05:36:01.705Z,21.11
2022-08-11T05:38:54.797Z,22.20
2022-08-11T05:41:48.144Z,23.46
2022-08-11T05:44:45.930Z,24.34
2022-08-11T05:47:45.922Z,24.92
2022-08-11T05:50:37.346Z,26.07
2022-08-11T05:53:43.662Z,26.70
2022-08-11T05:56:19.505Z,26.43
2022-08-11T05:58:59.075Z,27.05
2022-08-11T06:01:33.365Z,27.42
2022-08-11T06:04:16.873Z,27.80
2022-08-11T06:06:57.595Z,28.73
2022-08-11T06:09:50.076Z,29.07
2022-08-11T06:12:33.567Z,29.25
2022-08-11T06:15:09.198Z,28.80
2022-08-11T06:17:47.062Z,28.72
2022-08-11T06:20:17.031Z,28.63
2022-08-11T06:22:52.802Z,29.65
2022-08-11T06:25:22.035Z,29.55
2022-08-11T06:27:56.763Z,29.54
2022-08-11T06:30:40.002Z,29.79
2022-08-11T06:33:18.064Z,30.47
2022-08-11T06:35:50.228Z,29.90
2022-08-11T06:38:39.264Z,29.73
2022-08-11T06:41:32.549Z,30.48
2022-08-11T06:44:19.564Z,31.14
2022-08-11T06:46:56.544Z,31.37
2022-08-11T06:49:55.857Z,32.03
2022-08-11T06:52:41.967Z,32.25
2022-08-11T06:55:56.857Z,33.03
2022-08-11T06:58:55.955Z,33.91
2022-08-11T07:01:49.343Z,34.35
2022-08-11T07:04:41.890Z,34.79
2022-08-11T07:08:33.203Z,34.87
2022-08-11T07:11:38.178Z,35.17
2022-08-11T07:14:26.522Z,34.68
2022-08-11T07:16:56.542Z,34.97
2022-08-11T07:19:50.323Z,35.31
2022-08-11T07:22:42.856Z,35.56
2022-08-11T07:25:34.592Z,35.39
2022-08-11T07:28:43.914Z,35.38
2022-08-11T07:31:18.184Z,35.41
2022-08-11T07:34:05.821Z,35.75
2022-08-11T07:36:54.636Z,34.79
2022-08-11T07:39:34.748Z,35.24
2022-08-11T07:42:09.606Z,35.42
2022-08-11T07:45:00.617Z,36.16
2022-08-11T07:47:48.669Z,37.08
2022-08-11T07:50:37.123Z,37.50
2022-08-11T07:53:06.199Z,36.23
2022-08-11T07:55:51.799Z,35.14
2022-08-11T07:58:52.298Z,35.38
2022-08-11T08:01:42.861Z,35.89
2022-08-11T08:04:34.417Z,36.08
2022-08-11T08:07:24.015Z,35.66
2022-08-11T08:10:16.229Z,35.75
2022-08-11T08:13:04.303Z,36.51
2022-08-11T08:15:52.013Z,35.66
2022-08-11T08:18:25.983Z,36.49
2022-08-11T08:21:13.351Z,36.79
2022-08-11T08:23:46.433Z,35.97
2022-08-11T08:26:35.149Z,36.25
2022-08-11T08:29:24.981Z,36.88
2022-08-11T08:31:55.061Z,36.93
2022-08-11T08:34:24.560Z,36.35
2022-08-11T08:36:54.378Z,36.21
2022-08-11T08:39:23.080Z,36.82
2022-08-11T08:41:55.207Z,37.26
2022-08-11T08:44:43.536Z,37.37
2022-08-11T08:47:41.521Z,37.27
2022-08-11T08:50:21.677Z,37.71
2022-08-11T08:53:04.105Z,37.60
2022-08-11T08:55:33.888Z,36.34
2022-08-11T08:58:03.599Z,37.44
2022-08-11T09:00:44.851Z,37.91
2022-08-11T09:03:40.619Z,37.22
2022-08-11T09:06:02.699Z,37.15
2022-08-11T09:08:34.152Z,37.12
2022-08-11T09:11:23.116Z,36.70
2022-08-11T09:14:06.490Z,37.31
2022-08-11T09:16:39.690Z,38.07
2022-08-11T09:19:09.182Z,37.53
2022-08-11T09:21:49.173Z,36.64
2022-08-11T09:24:37.997Z,36.52
2022-08-11T09:27:08.740Z,36.28
2022-08-11T09:29:39.206Z,36.82
2022-08-11T09:32:08.987Z,37.85
2022-08-11T09:34:41.460Z,38.21
2022-08-11T09:37:54.999Z,38.04
2022-08-11T09:40:31.075Z,38.28
2022-08-11T09:43:20.101Z,37.74
2022-08-11T09:45:51.821Z,36.75
2022-08-11T09:48:26.219Z,37.23
2022-08-11T09:50:57.776Z,36.60
2022-08-11T09:53:35.731Z,37.44
2022-08-11T09:56:32.158Z,38.83
2022-08-11T09:59:01.272Z,38.96
2022-08-11T10:01:47.305Z,38.69
2022-08-11T10:04:31.400Z,37.94
2022-08-11T10:07:04.438Z,37.61
2022-08-11T10:09:53.592Z,37.00
2022-08-11T10:12:26.418Z,37.25
2022-08-11T10:15:15.903Z,36.19
2022-08-11T10:18:08.001Z,36.82
2022-08-11T10:20:39.767Z,38.07
2022-08-11T10:23:29.767Z,36.98
2022-08-11T10:26:17.025Z,37.22
2022-08-11T10:29:09.897Z,36.14
2022-08-11T10:31:57.050Z,35.97
2022-08-11T10:34:29.079Z,36.06
2022-08-11T10:37:03.248Z,36.03
2022-08-11T10:39:31.730Z,35.60
2022-08-11T10:42:35.045Z,36.00
2022-08-11T10:45:28.612Z,36.49
2022-08-11T10:47:58.477Z,36.61
2022-08-11T10:50:45.756Z,37.04
2022-08-11T10:53:34.522Z,37.18
2022-08-11T10:56:23.564Z,36.33
2022-08-11T10:58:57.574Z,36.10
2022-08-11T11:01:34.831Z,37.04
2022-08-11T11:04:15.521Z,37.50
2022-08-11T11:07:17.179Z,37.78
2022-08-11T11:10:02.844Z,37.82
2022-08-11T11:13:13.484Z,36.28
2022-08-11T11:16:05.782Z,35.83
2022-08-11T11:18:38.033Z,35.98
2022-08-11T11:21:15.455Z,35.34
2022-08-11T11:24:42.778Z,35.89
2022-08-11T11:27:31.115Z,36.67
2022-08-11T11:30:17.928Z,36.33
2022-08-11T11:33:08.218Z,36.21
2022-08-11T11:35:57.367Z,36.83
2022-08-11T11:38:25.495Z,36.38
2022-08-11T11:41:14.248Z,36.40
2022-08-11T11:43:43.878Z,35.76
2022-08-11T11:46:14.291Z,35.02
2022-08-11T11:48:43.514Z,35.05
2022-08-11T11:51:15.187Z,35.59
2022-08-11T11:53:45.764Z,35.12
2022-08-11T11:56:16.126Z,34.54
2022-08-11T11:59:03.440Z,34.42
2022-08-11T12:01:34.040Z,34.46
2022-08-11T12:04:07.956Z,33.78
2022-08-11T12:06:37.725Z,34.26
2022-08-11T12:09:06.867Z,34.97
2022-08-11T12:11:53.764Z,34.90
2022-08-11T12:14:22.489Z,34.20
2022-08-11T12:16:50.692Z,34.29
2022-08-11T12:19:23.476Z,34.31
2022-08-11T12:22:14.098Z,33.62
2022-08-11T12:25:01.629Z,33.21
2022-08-11T12:27:31.830Z,32.79
2022-08-11T12:30:06.627Z,33.13
2022-08-11T12:32:38.642Z,33.75
2022-08-11T12:35:08.275Z,34.08
2022-08-11T12:37:47.917Z,33.41
2022-08-11T12:41:11.695Z,33.28
2022-08-11T12:43:56.906Z,33.26
2022-08-11T12:46:33.004Z,33.64
2022-08-11T12:49:56.140Z,33.79
2022-08-11T12:52:34.104Z,32.53
2022-08-11T12:55:13.675Z,32.66
2022-08-11T12:58:07.172Z,33.13
2022-08-11T13:00:53.587Z,33.43
2022-08-11T13:03:42.590Z,33.47
2022-08-11T13:06:14.271Z,33.54
2022-08-11T13:08:45.117Z,33.31
2022-08-11T13:11:55.945Z,33.10
2022-08-11T13:14:27.346Z,33.17
2022-08-11T13:17:14.766Z,33.26
2022-08-11T13:19:49.605Z,33.30
2022-08-11T13:22:20.367Z,33.23
2022-08-11T13:24:51.981Z,33.14
2022-08-11T13:27:21.156Z,33.21
2022-08-11T13:29:50.730Z,32.82
2022-08-11T13:32:23.180Z,32.87
2022-08-11T13:34:50.909Z,32.79
2022-08-11T13:38:18.354Z,32.27
2022-08-11T13:40:14.573Z,32.61
2022-08-11T13:42:44.029Z,32.72
2022-08-11T13:45:14.598Z,32.78
2022-08-11T13:47:43.488Z,32.83
2022-08-11T13:50:14.938Z,32.82
2022-08-11T13:52:45.024Z,32.86
2022-08-11T13:55:51.174Z,32.84
2022-08-11T13:58:18.473Z,32.78
2022-08-11T14:00:52.901Z,32.87
2022-08-11T14:03:26.084Z,32.87
2022-08-11T14:06:28.330Z,32.62
2022-08-11T14:08:59.437Z,32.76
2022-08-11T14:12:22.224Z,32.65
2022-08-11T14:14:37.246Z,32.61
2022-08-11T14:17:09.009Z,32.84
2022-08-11T14:19:43.495Z,33.16
2022-08-11T14:22:16.745Z,32.63
2022-08-11T14:24:52.370Z,32.35
2022-08-11T14:28:22.057Z,32.43
2022-08-11T14:30:35.532Z,32.22
2022-08-11T14:33:16.444Z,32.08
2022-08-11T14:35:50.214Z,32.56
2022-08-11T14:38:20.034Z,32.82
2022-08-11T14:41:08.217Z,33.03
2022-08-11T14:44:10.418Z,32.63
2022-08-11T14:47:02.962Z,32.36
2022-08-11T14:49:36.250Z,32.15
2022-08-11T14:52:25.646Z,32.34
2022-08-11T14:55:13.229Z,32.42
2022-08-11T14:57:55.027Z,32.41
2022-08-11T15:00:23.990Z,32.53
2022-08-11T15:03:14.358Z,32.66
2022-08-11T15:05:57.306Z,32.69
2022-08-11T15:08:54.857Z,32.61
2022-08-11T15:11:44.683Z,32.34
2022-08-11T15:14:14.565Z,32.28
2022-08-11T15:17:18.702Z,32.25
2022-08-11T15:20:08.222Z,32.04
2022-08-11T15:22:54.493Z,32.45
2022-08-11T15:25:22.643Z,32.56
2022-08-11T15:28:13.257Z,32.72
2022-08-11T15:31:02.573Z,32.68
2022-08-11T15:33:54.288Z,32.22
2022-08-11T15:36:42.952Z,32.14
2022-08-11T15:39:58.734Z,32.29
2022-08-11T15:42:45.087Z,32.52
2022-08-11T15:45:39.907Z,32.13
2022-08-11T15:48:16.710Z,32.17
2022-08-11T15:50:56.014Z,32.24
2022-08-11T15:53:43.052Z,32.15
2022-08-11T15:56:16.044Z,32.34
2022-08-11T15:59:33.762Z,32.28
2022-08-11T16:02:17.198Z,32.31
2022-08-11T16:04:49.501Z,32.36
2022-08-11T16:07:26.652Z,32.14
2022-08-11T16:10:03.053Z,31.86
2022-08-11T16:13:15.734Z,31.95
2022-08-11T16:16:14.742Z,32.03
2022-08-11T16:18:56.962Z,31.72
2022-08-11T16:21:35.977Z,31.66
2022-08-11T16:27:05.338Z,31.77
2022-08-11T16:27:13.482Z,31.59
2022-08-11T16:29:50.730Z,31.66
2022-08-11T16:32:23.572Z,31.62
2022-08-11T16:35:17.449Z,31.69
2022-08-11T16:38:05.629Z,31.57
2022-08-11T16:40:35.289Z,31.53
2022-08-11T16:43:26.320Z,31.66
2022-08-11T16:46:14.690Z,31.47
2022-08-11T16:48:45.813Z,31.45
2022-08-11T16:51:16.269Z,31.56
2022-08-11T16:54:03.645Z,31.54
2022-08-11T16:56:53.692Z,31.30
2022-08-11T16:59:32.131Z,31.42
2022-08-11T17:02:46.274Z,31.39
2022-08-11T17:05:54.389Z,31.50
2022-08-11T17:08:56.688Z,31.25
2022-08-11T17:11:49.949Z,31.03
2022-08-11T17:14:36.219Z,31.21
2022-08-11T17:17:15.846Z,31.22
2022-08-11T17:20:39.681Z,31.16
2022-08-11T17:23:02.468Z,31.18
2022-08-11T17:25:59.295Z,31.26
2022-08-11T17:28:24.571Z,31.21
2022-08-11T17:31:21.846Z,31.12
2022-08-11T17:34:13.195Z,31.03
2022-08-11T17:36:45.964Z,31.12
2022-08-11T17:39:16.602Z,31.12
2022-08-11T17:42:05.173Z,31.11
2022-08-11T17:44:54.121Z,31.12
2022-08-11T17:47:45.241Z,31.07
2022-08-11T17:50:17.081Z,30.92
2022-08-11T17:53:06.173Z,30.99
2022-08-11T17:55:57.553Z,30.99
2022-08-11T17:58:46.175Z,30.98
2022-08-11T18:01:17.829Z,30.94
2022-08-11T18:03:54.554Z,30.84
2022-08-11T18:06:34.137Z,30.89
2022-08-11T18:09:32.600Z,31.02
2022-08-11T18:12:21.814Z,30.84
2022-08-11T18:15:14.953Z,30.82
2022-08-11T18:18:02.755Z,30.80
2022-08-11T18:20:51.182Z,30.71
2022-08-11T18:23:46.846Z,30.63
2022-08-11T18:26:39.815Z,30.58
2022-08-11T18:29:27.958Z,30.61
2022-08-11T18:32:21.228Z,30.53
2022-08-11T18:35:13.685Z,30.39
2022-08-11T18:38:07.664Z,30.29
2022-08-11T18:40:56.358Z,30.16
2022-08-11T18:43:46.598Z,30.08
2022-08-11T18:46:37.361Z,30.13
2022-08-11T18:50:02.353Z,30.05
2022-08-11T18:52:48.224Z,29.98
2022-08-11T18:55:38.058Z,29.86
2022-08-11T18:58:29.023Z,29.85
2022-08-11T19:01:19.438Z,29.79
2022-08-11T19:04:10.644Z,29.72
2022-08-11T19:07:02.309Z,29.55
2022-08-11T19:09:50.145Z,29.57
2022-08-11T19:12:40.030Z,29.47
2022-08-11T19:15:31.953Z,29.28
2022-08-11T19:18:22.410Z,29.24
2022-08-11T19:21:14.234Z,29.18
2022-08-11T19:24:06.985Z,29.07
2022-08-11T19:26:55.046Z,28.99
2022-08-11T19:30:07.786Z,28.86
2022-08-11T19:32:52.395Z,28.82
2022-08-11T19:35:39.976Z,28.65
2022-08-11T19:38:29.150Z,28.58
2022-08-11T19:41:18.496Z,28.52
2022-08-11T19:44:26.784Z,28.42
2022-08-11T19:47:14.519Z,28.38
2022-08-11T19:50:02.729Z,28.31
2022-08-11T19:52:50.707Z,28.22
2022-08-11T19:55:38.378Z,28.18
2022-08-11T19:58:27.902Z,28.11
2022-08-11T20:01:16.443Z,28.11
2022-08-11T20:04:03.623Z,28.11
2022-08-11T20:06:54.599Z,28.05
2022-08-11T20:10:06.159Z,28.07
2022-08-11T20:12:51.207Z,28.07
2022-08-11T20:15:41.733Z,27.98
2022-08-11T20:18:32.810Z,28.02
2022-08-11T20:21:22.824Z,27.97
2022-08-11T20:24:21.790Z,27.91
2022-08-11T20:27:18.982Z,27.89
2022-08-11T20:30:14.346Z,27.84
2022-08-11T20:33:02.360Z,27.73
2022-08-11T20:35:50.058Z,27.66
2022-08-11T20:38:39.842Z,27.54
2022-08-11T20:41:31.288Z,27.43
2022-08-11T20:44:37.623Z,27.50
2022-08-11T20:47:25.079Z,27.49
2022-08-11T20:50:19.342Z,27.42
2022-08-11T20:53:06.323Z,27.42
2022-08-11T20:55:53.873Z,27.33
2022-08-11T20:59:14.056Z,27.19
2022-08-11T21:01:52.276Z,27.22
2022-08-11T21:04:54.443Z,27.12
2022-08-11T21:07:55.440Z,27.02
2022-08-11T21:10:50.614Z,26.87
2022-08-11T21:13:51.484Z,26.71
2022-08-11T21:16:47.604Z,26.70
2022-08-11T21:20:07.146Z,26.48
2022-08-11T21:23:06.702Z,26.33
2022-08-11T21:25:59.711Z,26.22
2022-08-11T21:28:47.492Z,26.17
2022-08-11T21:31:36.872Z,26.17
2022-08-11T21:34:26.347Z,26.25
2022-08-11T21:37:13.675Z,26.22
2022-08-11T21:40:04.152Z,26.22
2022-08-11T21:42:56.552Z,26.17
2022-08-11T21:45:46.020Z,26.16
2022-08-11T21:48:33.685Z,26.10
2022-08-11T21:51:20.087Z,26.09
2022-08-11T21:54:09.016Z,26.05
2022-08-11T21:56:57.057Z,26.02
2022-08-11T22:00:15.335Z,25.92
2022-08-11T22:03:05.764Z,25.84
2022-08-11T22:05:55.485Z,25.81
2022-08-11T22:08:42.146Z,25.75
2022-08-11T22:11:32.507Z,25.65
2022-08-11T22:14:23.102Z,25.55
2022-08-11T22:17:11.837Z,25.52
2022-08-11T22:20:01.006Z,25.49
2022-08-11T22:22:53.036Z,25.37
2022-08-11T22:25:51.575Z,25.28
2022-08-11T22:28:41.339Z,25.24
2022-08-11T22:31:31.035Z,25.26
2022-08-11T22:34:17.425Z,25.23
2022-08-11T22:37:07.042Z,25.11
2022-08-11T22:39:59.840Z,24.96
2022-08-11T22:42:51.117Z,24.77
2022-08-11T22:45:38.759Z,24.61
2022-08-11T22:48:26.900Z,24.49
2022-08-11T22:51:14.761Z,24.42
2022-08-11T22:54:03.692Z,24.41
2022-08-11T22:56:51.508Z,24.43
2022-08-11T22:59:39.666Z,24.39
2022-08-11T23:02:26.823Z,24.38
2022-08-11T23:05:14.109Z,24.28
2022-08-11T23:08:01.067Z,24.18
2022-08-11T23:10:48.415Z,24.05
2022-08-11T23:13:35.293Z,23.88
2022-08-11T23:16:22.535Z,23.80
2022-08-11T23:19:11.806Z,23.74
2022-08-11T23:21:59.917Z,23.60
2022-08-11T23:24:47.043Z,23.52
2022-08-11T23:27:35.042Z,23.46
2022-08-11T23:30:22.506Z,23.42
2022-08-11T23:33:13.579Z,23.43
2022-08-11T23:36:05.325Z,23.39
2022-08-11T23:38:53.067Z,23.35
2022-08-11T23:41:39.574Z,23.28
2022-08-11T23:44:28.999Z,23.26
2022-08-11T23:47:18.993Z,23.29
2022-08-11T23:50:06.795Z,23.29
2022-08-11T23:52:55.454Z,23.41
2022-08-11T23:55:42.579Z,23.43
2022-08-11T23:58:31.773Z,23.46
